Newman Grove, Nebraska
Current Conditions -  °F | °C
As of 3:35 AM on Thursday 18 Dec 2014 (Local Time) from KBVN Reporting Station
Light Snow Light Snow  
Wind Chill: -9°   Ceiling: 1300
Heat Index: -5°   Visibility: 2.5mi
Dew Point: -7°   Wind: 7mph
Humidity: 87%   Direction: 140°SE
Pressure: 30.17"   Gusts: NA
Location:  41.75°N, 97.78°W
Report Text: KBVN 180935Z AUTO 14006KT 2 1/2SM -SN OVC013 M05/M06 A3017 RMK AO2 T10471065
Loading
Personal Weather Stations






























Interactive Weather Map New forecast layout! Learn more

10-Day Weather Forecast

Advertisements
Track Severe Weather on mobile